»·PEaware :: N405JH KRDD-KRNO

N405JH :: KRDD-KRNO

FLIGHT INFORMATION

Flight Status: Arrived
Operator: Privately registered:
United States
More flights under this callsign
Pilot: David L. (16466)
Aircraft: Unknown
(LEG2)
More flights by this aircraft type
Origin: KRDD Redding Mun
United States
Destination: KRNO Reno/Tahoe Intl
United States
More flights between these airports :: More routes between these airports
Route: +HOMAN3 HOMAN ROARS
File this flight plan on PilotEdge
Remarks:
Altitude:
(Current/Filed)
15,000ft
Speed:
(Current/Filed)
240kts
Departed: 13-Sep-20 12:11 PM
Arrived: 13-Sep-20 12:56 PM
Distance/Time
Traveled:
131nm/0:45
Distance/Time
To Go:
Arrived

Flight Plot

Page will automatically refresh every two minutes.

Flight plan parsing failed; only flown route is shown


Map Options




Map Legend


Flown Route
Filed Route
Departure Airport
Arrival Airport
Navaid (VOR, NDB)
Fix

Horizontal Profiles

Position Reports

Time Latitude Longitude Heading Altitude Ground
Speed
13-Sep-20 11:52 40.510565 -122.300532 179 495ft 0kts
13-Sep-20 11:53 40.510565 -122.300532 179 495ft 0kts
13-Sep-20 11:54 40.510565 -122.300532 179 495ft 0kts
13-Sep-20 11:55 40.510565 -122.300532 179 495ft 0kts
13-Sep-20 11:56 40.510565 -122.300532 179 495ft 0kts
13-Sep-20 11:57 40.510565 -122.300532 179 495ft 0kts
13-Sep-20 11:58 40.510565 -122.300532 179 495ft 0kts
13-Sep-20 11:59 40.510565 -122.300532 179 495ft 0kts
13-Sep-20 12:00 40.510565 -122.300532 179 495ft 0kts
13-Sep-20 12:01 40.510565 -122.300532 179 495ft 0kts
13-Sep-20 12:02 40.510565 -122.300532 179 495ft 0kts
13-Sep-20 12:03 40.510565 -122.300532 179 495ft 0kts
13-Sep-20 12:04 40.511179 -122.299076 39 497ft 7kts
13-Sep-20 12:05 40.511896 -122.298582 17 498ft 0kts
13-Sep-20 12:06 40.515730 -122.297276 45 499ft 18kts
13-Sep-20 12:07 40.520057 -122.296191 30 501ft 12kts
13-Sep-20 12:08 40.520230 -122.295886 76 501ft 0kts
13-Sep-20 12:09 40.520249 -122.295672 89 501ft 10kts
13-Sep-20 12:10 40.501636 -122.294921 177 1161ft 146kts
13-Sep-20 12:11 40.479632 -122.250849 127 3159ft 156kts
13-Sep-20 12:12 40.451884 -122.207825 129 5128ft 158kts
13-Sep-20 12:13 40.426666 -122.163732 136 7209ft 148kts
13-Sep-20 12:14 40.404033 -122.117273 112 8909ft 159kts
13-Sep-20 12:15 40.388484 -122.058948 114 9962ft 184kts
13-Sep-20 12:16 40.373526 -121.994225 114 11240ft 180kts
13-Sep-20 12:17 40.359511 -121.934301 115 12689ft 167kts
13-Sep-20 12:18 40.345460 -121.874418 115 13746ft 174kts
13-Sep-20 12:19 40.331067 -121.813208 115 14740ft 178kts
13-Sep-20 12:20 40.315180 -121.745956 114 15017ft 216kts
13-Sep-20 12:21 40.297135 -121.669798 113 15017ft 240kts
13-Sep-20 12:22 40.276907 -121.584587 113 15016ft 248kts
13-Sep-20 12:23 40.256238 -121.497825 113 15016ft 251kts
13-Sep-20 12:24 40.235353 -121.410486 113 15028ft 251kts
13-Sep-20 12:25 40.214412 -121.323246 113 15087ft 250kts
13-Sep-20 12:26 40.193474 -121.236345 114 15147ft 250kts
13-Sep-20 12:27 40.172511 -121.149682 113 15180ft 251kts
13-Sep-20 12:28 40.151008 -121.061102 112 15004ft 257kts
13-Sep-20 12:29 40.129336 -120.972147 112 15004ft 257kts
13-Sep-20 12:30 40.107492 -120.882822 112 15006ft 258kts
13-Sep-20 12:31 40.085518 -120.793316 112 15006ft 259kts
13-Sep-20 12:32 40.063502 -120.703982 112 15006ft 259kts
13-Sep-20 12:33 40.041424 -120.614728 112 15006ft 259kts
13-Sep-20 12:34 40.019200 -120.525221 112 15006ft 259kts
13-Sep-20 12:35 39.996955 -120.435963 112 15012ft 258kts
13-Sep-20 12:36 39.974615 -120.346656 112 15029ft 258kts
13-Sep-20 12:37 39.952325 -120.257892 112 15045ft 258kts
13-Sep-20 12:38 39.929909 -120.168957 112 14869ft 263kts
13-Sep-20 12:39 39.907585 -120.080466 113 13669ft 228kts
13-Sep-20 12:40 39.891579 -120.017261 115 13031ft 158kts
13-Sep-20 12:41 39.877014 -119.965928 118 13143ft 139kts
13-Sep-20 12:42 39.867977 -119.917820 116 13278ft 128kts
13-Sep-20 12:43 39.853216 -119.873605 118 13275ft 135kts
13-Sep-20 12:44 39.835198 -119.832777 139 13280ft 126kts
13-Sep-20 12:45 39.813923 -119.795208 135 12528ft 132kts
13-Sep-20 12:46 39.786794 -119.765537 176 11509ft 134kts
13-Sep-20 12:47 39.749124 -119.768058 177 9803ft 126kts
13-Sep-20 12:48 39.717407 -119.767486 179 8128ft 111kts
13-Sep-20 12:49 39.685410 -119.766929 173 7271ft 125kts
13-Sep-20 12:50 39.650564 -119.766751 174 7046ft 132kts
13-Sep-20 12:51 39.613823 -119.766387 173 6471ft 136kts
13-Sep-20 12:52 39.575956 -119.766201 178 5620ft 137kts
13-Sep-20 12:53 39.539700 -119.766704 179 4970ft 122kts
13-Sep-20 12:54 39.510005 -119.766751 180 4417ft 67kts
13-Sep-20 12:55 39.504518 -119.766769 180 4417ft 19kts
13-Sep-20 12:56 39.501862 -119.765715 179 4417ft 10kts

Navigation Log

Ident Type
Flight plan parsing failed, navigation log unavailable